Observations for MADISON DANE RGNL, WI (MSN)

KMSN 211753Z 16009KT 10SM FEW018 BKN140 M12/M16 A3046 RMK AO2 SNE06 SLP340 4/003 933003 P0000 60000 I6001 T11171161 11117 21250 58009   
KMSN 211707Z 16011KT 10SM SCT013 SCT150 BKN250 M13/M17 A3049 RMK AO2 SNE06 P0000 T11331172
KMSN 211653Z 17006KT 8SM -SN BKN014 M14/M18 A3050 RMK AO2 SNB17 SLP355 P0000 T11441178  
KMSN 211610Z 18008KT 10SM BKN019 BKN250 M17/M20 A3050 RMK AO2 T11671200
KMSN 211645Z 18007KT 9SM -SN BKN014 M15/M18 A3050 RMK AO2 SNB17 P0000 T11501183
KMSN 211553Z 17011KT 10SM FEW020 BKN250 M16/M19 A3050 RMK AO2 SLP353 T11561194  
KMSN 211453Z 00000KT 10SM BKN250 M19/M21 A3049 RMK AO2 SLP352 I1001 I3001 T11891211 58001   
KMSN 211353Z 00000KT 10SM FEW200 BKN250 M23/M26 A3050 RMK AO2 SLP357 T12331261  
KMSN 211253Z 00000KT 10SM FEW190 SCT250 M24/M27 A3049 RMK AO2 SLP354 T12441267  
KMSN 211153Z 33003KT 10SM CLR M25/M27 A3049 RMK AO2 SLP353 4/003 T12501267 11228 21256 53006
KMSN 211053Z AUTO 34004KT 10SM CLR M24/M26 A3048 RMK AO2 SLP349 T12441261   
KMSN 210953Z AUTO 00000KT 10SM CLR M25/M27 A3048 RMK AO2 SLP347 T12501272   
KMSN 210853Z AUTO 00000KT 10SM CLR M25/M28 A3048 RMK AO2 SLP345 T12501278 50002 
KMSN 210753Z AUTO 01004KT 10SM CLR M25/M27 A3048 RMK AO2 SLP349 T12501267   
KMSN 210653Z AUTO 32003KT 10SM CLR M24/M27 A3047 RMK AO2 SLP345 T12391267   
KMSN 210553Z AUTO 00000KT 10SM CLR M23/M26 A3047 RMK AO2 SLP343 I6000 T12331256 11178 21244 411331244 51002 
KMSN 210453Z 00000KT 10SM CLR M23/M25 A3046 RMK AO2 SLP342 LAST I1000 T12281250 
KMSN 210353Z 00000KT 10SM CLR M23/M24 A3047 RMK AO2 SLP345 I1000 T12281244  
KMSN 210253Z 34003KT 10SM CLR M22/M24 A3046 RMK AO2 SLP342 I1000 I3000 T12221244 51011  
KMSN 210153Z 00000KT 10SM CLR M20/M22 A3046 RMK AO2 SLP340 I1000 T12001222  
KMSN 210053Z 00000KT 10SM CLR M19/M22 A3044 RMK AO2 SLP333 T11941217
KMSN 202353Z 00000KT 10SM CLR M18/M22 A3043 RMK AO2 SLP330 4/003 T11781217 11133 21178 52014
KMSN 202253Z 02005KT 10SM CLR M16/M22 A3042 RMK AO2 SLP323 T11561222
KMSN 202153Z 02009KT 10SM CLR M14/M21 A3040 RMK AO2 SLP317 T11391211
KMSN 202053Z 03011KT 10SM FEW028 M13/M21 A3039 RMK AO2 SLP312 T11331206 53005   
KMSN 201953Z 01011KT 10SM FEW025 FEW200 M14/M21 A3037 RMK AO2 SLP308 T11391206  
KMSN 201853Z 02010KT 10SM FEW200 M14/M22 A3037 RMK AO2 SLP306 T11391217 
KMSN 201753Z 01012KT 10SM FEW250 M15/M22 A3037 RMK AO2 SLP307 4/003 933003 T11501222 11150 21200 50009